Historyczne dane pomiarowe

Dodano dane terminowe – wersja testowa.

Dane z okresu 1951-2019

Wersja bazy: 1.34 [2019-03-16, lista zmian], aktualizacja planowana na 2019-04-15

Dane meteo z obszaru Polski uzyskane na podstawie danych udostępnionych przez Instytut Meteorologii i Gospodarki Wodnej – Państwowy Instytut Badawczy.

 

Wybierz Datę:    

       

TemperaturaWilgotnośćZachmurzenieWiatrCiśnienieWidzialnośćZjawiska
 Data    tng td wb rh cc ccl cl cm ch dir g1 g2 mslp ppp      
1994-06-30 00:00:00 18.8--- 18.2 18.496wxwxwxwx0wx--1018.6 978.5 5.9---wxw1
1994-06-30 01:00:00 18.7--- 18.4 18.598wxwxwx0wx--1019.4 979.3----wx
1994-06-30 02:00:00 18.8--- 18.2 18.496wxwxwx1wx--1019.7 979.6----wx
1994-06-30 03:00:00 18.8--- 18.2 18.496wxwxwx2wx--1020.0 979.9----wx
1994-06-30 04:00:00 18.8--- 17.9 18.294wxwxwx1wx--1020.4 980.2----wx
1994-06-30 05:00:00 19.0--- 17.5 18.091wxwxwx2wx--1020.8 980.7----wx
1994-06-30 06:00:00 18.5--- 17.9 18.196wxwxwx1wx--1021.2 981.0 3.5---wxw1
1994-06-30 07:00:00 18.5--- 17.9 18.196wxwxwx1wx--1022.0 981.7----wxw1
1994-06-30 08:00:00 17.6--- 16.8 17.195wxwxwx3wx--1022.6 982.2----wxw1
1994-06-30 09:00:00 16.5--- 15.9 16.196wxwxwx3wx--1023.7 983.1----wxw1
1994-06-30 10:00:00 16.8--- 15.4 15.991wxwxwx3wx--1024.2 983.6----wx
1994-06-30 11:00:00 16.9--- 15.3 15.990wxwxwx2wx--1024.3 983.7----wx
1994-06-30 12:00:00 18.5--- 15.0 16.380wxwxwx1wx--1023.7 983.4 1.9---wxw1
1994-06-30 13:00:00 19.7--- 15.4 17.076wxwxwx1wx--1023.3 983.2----wx
1994-06-30 14:00:00 21.5--- 15.2 17.567wxwxwx2wx--1022.8 982.9----wx
1994-06-30 15:00:00 21.4--- 12.8 16.258wxwxwx3wx--1022.4 982.5----wx
1994-06-30 16:00:00 21.5--- 13.3 16.560wxwxwxwx3wx--1022.0 982.1----wx
1994-06-30 17:00:00 20.5--- 11.7 15.357wxwxwxwx3wx--1022.0 982.0----wx
1994-06-30 18:00:00 20.7--- 11.2 15.154wxwxwxwx1wx--1022.0 982.0 0.0---wx
1994-06-30 19:00:00 20.5--- 11.7 15.357wxwxwxwx0wx--1022.2 982.2----wx
1994-06-30 20:00:00 16.7--- 12.7 14.377wxwxwxwx0wx--1023.3 982.7----wx
1994-06-30 21:00:00 13.3--- 11.2 12.187wxwxwx0wx--1024.1 983.0----wx
1994-06-30 22:00:00 12.3--- 11.2 11.793wxwx0wx--1024.6 983.4----wx
1994-06-30 23:00:00 10.9--- 10.2 10.595wxwx0wx--1025.1 983.7----wx

 

Źródłem pochodzenia danych jest Instytut Meteorologii i Gospodarki Wodnej – Państwowy Instytut Badawczy. Dane Instytutu Meteorologii i Gospodarki Wodnej – Państwowego Instytutu Badawczego zostały przetworzone.

Dane źródłowe można odnaleźć na stronie https://dane.imgw.pl